Time;durP1;ratioP1;P1;durP2;ratioP2;P2;SDS_P1;SDS_P2;PMS_P1;PMS_P2;Temp;Humidity;BMP_temperature;BMP_pressure;BME280_temperature;BME280_humidity;BME280_pressure;Samples;Min_cycle;Max_cycle;Signal;HPM_P1;HPM_P2
2022/09/04 00:01:54;;;;;;;0.00;0.00;;;15.70;66.20;;;;;;5112212;28;20023;-76
2022/09/04 00:04:47;;;;;;;0.00;0.00;;;15.60;66.20;;;;;;5112327;28;20612;-76
2022/09/04 00:07:23;;;;;;;0.00;0.00;;;15.60;66.20;;;;;;5112254;28;20027;-76
2022/09/04 00:10:21;;;;;;;0.00;0.00;;;15.60;66.20;;;;;;5112208;28;20058;-76
2022/09/04 00:12:53;;;;;;;0.10;0.10;;;15.60;66.20;;;;;;5112222;28;20039;-76
2022/09/04 00:15:30;;;;;;;0.10;0.10;;;15.60;66.20;;;;;;5110537;28;20031;-76
2022/09/04 00:17:59;;;;;;;0.10;0.10;;;15.60;66.20;;;;;;5110358;28;20403;-76
2022/09/04 00:20:27;;;;;;;0.10;0.10;;;15.60;66.30;;;;;;5112112;28;20023;-76
2022/09/04 00:23:19;;;;;;;0.10;0.10;;;15.60;66.20;;;;;;5111835;28;20508;-77
2022/09/04 00:26:18;;;;;;;0.10;0.10;;;15.70;66.30;;;;;;5111860;28;20023;-76
2022/09/04 00:28:48;;;;;;;0.20;0.20;;;15.70;66.30;;;;;;5111874;28;20016;-76
2022/09/04 00:31:35;;;;;;;0.10;0.10;;;15.80;66.30;;;;;;5110396;28;20030;-76
2022/09/04 00:34:10;;;;;;;0.20;0.20;;;15.80;66.20;;;;;;5111914;28;20525;-76
2022/09/04 00:36:42;;;;;;;0.20;0.20;;;15.80;66.10;;;;;;5110068;28;20027;-76
2022/09/04 00:39:21;;;;;;;0.30;0.30;;;15.90;66.20;;;;;;5111828;28;20026;-77
2022/09/04 00:41:57;;;;;;;0.30;0.30;;;15.90;66.10;;;;;;5110388;28;20110;-77
2022/09/04 00:44:46;;;;;;;0.28;0.28;;;15.90;66.20;;;;;;5111798;28;20024;-77
2022/09/04 00:47:31;;;;;;;0.20;0.20;;;15.90;66.10;;;;;;5109688;28;20027;-76
2022/09/04 00:50:10;;;;;;;0.30;0.30;;;15.90;66.10;;;;;;5111717;28;20106;-76
2022/09/04 00:53:03;;;;;;;0.40;0.40;;;16.00;66.10;;;;;;5111714;28;20096;-76
2022/09/04 00:55:47;;;;;;;0.30;0.30;;;16.00;66.10;;;;;;5111275;28;20040;-77
2022/09/04 00:58:37;;;;;;;0.40;0.40;;;16.00;66.10;;;;;;5110328;28;20026;-76
2022/09/04 01:01:03;;;;;;;0.43;0.43;;;16.00;66.20;;;;;;5109969;28;20028;-74
2022/09/04 01:03:29;;;;;;;;;;;16.00;66.20;;;;;;5111708;28;20533;-77
2022/09/04 01:06:22;;;;;;;0.50;0.50;;;15.90;66.10;;;;;;5109980;28;19919;-77
2022/09/04 01:09:09;;;;;;;0.60;0.60;;;15.90;66.20;;;;;;5111563;28;20024;-76
2022/09/04 01:11:42;;;;;;;0.70;0.70;;;15.90;66.30;;;;;;5111509;28;20019;-77
2022/09/04 01:14:28;;;;;;;0.77;0.77;;;15.90;66.40;;;;;;5111509;28;20089;-77
2022/09/04 01:17:13;;;;;;;0.70;0.70;;;15.90;66.40;;;;;;5111276;28;20028;-77
2022/09/04 01:20:03;;;;;;;0.88;0.88;;;16.00;66.40;;;;;;5110242;28;20474;-77
2022/09/04 01:22:56;;;;;;;0.90;0.90;;;16.00;66.30;;;;;;5110000;28;20048;-77
2022/09/04 01:25:59;;;;;;;0.90;0.90;;;16.00;66.20;;;;;;5111419;28;20114;-77
2022/09/04 01:28:34;;;;;;;0.90;0.90;;;16.00;66.20;;;;;;5111206;28;20024;-77
2022/09/04 01:31:25;;;;;;;1.00;1.00;;;16.10;66.30;;;;;;5109918;28;20051;-78
2022/09/04 01:34:25;;;;;;;1.10;1.10;;;16.00;66.30;;;;;;5109780;28;20027;-77
2022/09/04 01:37:19;;;;;;;1.08;1.08;;;16.10;66.40;;;;;;5109795;28;20436;-77
2022/09/04 01:39:56;;;;;;;1.02;1.02;;;16.10;66.40;;;;;;5111256;28;20020;-77
2022/09/04 01:42:41;;;;;;;1.30;1.20;;;16.10;66.40;;;;;;5111291;28;20019;-77
2022/09/04 01:45:09;;;;;;;1.13;1.10;;;16.10;66.50;;;;;;5111057;28;20432;-77
2022/09/04 01:47:45;;;;;;;1.40;1.30;;;16.20;66.60;;;;;;5109585;28;20051;-77
2022/09/04 01:50:22;;;;;;;1.27;1.17;;;16.10;66.50;;;;;;5111219;28;20091;-77
2022/09/04 01:53:16;;;;;;;1.60;1.50;;;16.10;66.60;;;;;;5109815;28;20424;-77
2022/09/04 01:56:06;;;;;;;1.30;1.20;;;16.20;66.60;;;;;;5104455;28;20395;-77
2022/09/04 01:59:09;;;;;;;1.48;1.38;;;16.20;66.50;;;;;;5111183;28;20024;-78
2022/09/04 02:01:43;;;;;;;1.55;1.45;;;16.30;66.50;;;;;;5111056;28;20019;-77
2022/09/04 02:04:26;;;;;;;1.35;1.25;;;16.30;66.40;;;;;;5109475;28;20012;-77
2022/09/04 02:07:43;;;;;;;1.58;1.48;;;16.30;66.40;;;;;;5109708;28;20161;-77
2022/09/04 02:10:46;;;;;;;1.70;1.60;;;16.30;66.30;;;;;;5064873;28;20036;-77
2022/09/04 02:13:22;;;;;;;1.40;1.30;;;16.40;66.40;;;;;;5091702;28;20054;-77
2022/09/04 02:16:07;;;;;;;1.50;1.40;;;16.30;66.40;;;;;;5110844;28;20110;-77
2022/09/04 02:18:40;;;;;;;1.40;1.30;;;16.20;66.50;;;;;;5109535;28;20015;-77
2022/09/04 02:21:09;;;;;;;1.17;1.15;;;16.20;66.60;;;;;;5114489;28;20023;-77
2022/09/04 02:24:07;;;;;;;1.30;1.20;;;16.10;66.70;;;;;;5114488;28;20372;-77
2022/09/04 02:26:36;;;;;;;;;;;16.10;66.80;;;;;;5101045;28;20062;-77
2022/09/04 02:29:05;;;;;;;1.40;1.30;;;16.10;66.70;;;;;;5114374;28;20381;-77
2022/09/04 02:32:01;;;;;;;1.27;1.17;;;16.10;66.60;;;;;;5114335;28;20028;-77
2022/09/04 02:34:48;;;;;;;1.60;1.50;;;16.10;66.60;;;;;;5114323;28;20465;-77
2022/09/04 02:37:48;;;;;;;1.48;1.38;;;16.10;66.60;;;;;;5114136;28;20020;-77
2022/09/04 02:40:32;;;;;;;1.45;1.35;;;16.10;66.60;;;;;;5089967;28;20032;-77
2022/09/04 02:43:27;;;;;;;1.52;1.42;;;16.10;66.50;;;;;;5112701;28;20023;-77
2022/09/04 02:46:06;;;;;;;1.35;1.25;;;16.00;66.50;;;;;;5113870;28;20084;-77
2022/09/04 02:49:00;;;;;;;1.33;1.23;;;16.00;66.40;;;;;;5112652;28;20035;-77
2022/09/04 02:51:40;;;;;;;1.33;1.23;;;16.00;66.40;;;;;;5112649;28;20032;-77
2022/09/04 02:54:16;;;;;;;1.25;1.15;;;15.90;66.30;;;;;;5113724;28;20044;-77
2022/09/04 02:57:08;;;;;;;1.33;1.23;;;15.80;66.30;;;;;;5113703;28;20019;-77
2022/09/04 02:59:57;;;;;;;1.25;1.15;;;15.80;66.40;;;;;;5114096;28;20031;-76
2022/09/04 03:02:27;;;;;;;1.58;1.48;;;15.70;66.40;;;;;;5112425;28;20382;-76
2022/09/04 03:05:06;;;;;;;1.73;1.63;;;15.60;66.40;;;;;;5112237;28;20031;-76
2022/09/04 03:07:45;;;;;;;1.25;1.15;;;15.50;66.40;;;;;;5113526;28;20080;-76
2022/09/04 03:10:18;;;;;;;1.13;1.10;;;15.50;66.40;;;;;;5113657;28;20044;-77
2022/09/04 03:12:51;;;;;;;0.93;0.93;;;15.30;66.10;;;;;;5113409;28;20095;-76
2022/09/04 03:15:37;;;;;;;1.10;1.10;;;15.10;66.20;;;;;;5113328;28;20039;-76
2022/09/04 03:18:25;;;;;;;1.17;1.10;;;14.90;66.30;;;;;;5113574;28;20019;-76
2022/09/04 03:21:00;;;;;;;1.30;1.20;;;14.80;66.50;;;;;;5113455;28;20051;-76
2022/09/04 03:23:38;;;;;;;1.30;1.20;;;14.60;66.40;;;;;;5111826;28;20020;-76
2022/09/04 03:26:21;;;;;;;1.13;1.08;;;14.50;66.40;;;;;;5113312;28;20024;-76
2022/09/04 03:29:20;;;;;;;1.20;1.13;;;14.30;66.50;;;;;;5111995;28;20019;-76
2022/09/04 03:32:19;;;;;;;1.05;1.05;;;14.20;66.60;;;;;;5112946;28;20028;-76
2022/09/04 03:35:14;;;;;;;1.27;1.17;;;14.20;66.70;;;;;;5113123;28;20020;-76
2022/09/04 03:37:46;;;;;;;1.08;1.05;;;14.10;66.80;;;;;;5112942;28;20110;-76
2022/09/04 03:40:34;;;;;;;1.42;1.33;;;14.10;66.80;;;;;;5111645;28;20016;-76
2022/09/04 03:43:05;;;;;;;1.48;1.38;;;14.10;66.80;;;;;;5112907;28;20062;-76
2022/09/04 03:45:59;;;;;;;1.70;1.60;;;14.10;66.80;;;;;;5112856;28;20073;-76
2022/09/04 03:48:53;;;;;;;1.58;1.48;;;14.20;66.90;;;;;;5112697;28;20015;-76
2022/09/04 03:51:37;;;;;;;1.73;1.63;;;14.20;66.80;;;;;;5112740;28;20487;-76
2022/09/04 03:54:22;;;;;;;1.67;1.58;;;14.20;66.70;;;;;;5112450;28;20039;-76
2022/09/04 03:57:08;;;;;;;1.88;1.77;;;14.30;66.70;;;;;;5112387;28;20028;-76
2022/09/04 03:59:48;;;;;;;1.58;1.48;;;14.30;66.70;;;;;;5112630;28;20071;-76
2022/09/04 04:02:36;;;;;;;1.70;1.60;;;14.40;66.70;;;;;;5112444;28;20016;-76
2022/09/04 04:05:15;;;;;;;1.80;1.70;;;14.40;66.70;;;;;;5112376;28;20031;-76
2022/09/04 04:08:04;;;;;;;1.98;1.88;;;14.40;66.60;;;;;;5112726;28;20464;-76
2022/09/04 04:11:02;;;;;;;1.77;1.67;;;14.40;66.60;;;;;;5111005;28;20468;-76
2022/09/04 04:14:05;;;;;;;2.10;1.95;;;14.40;66.60;;;;;;5112420;28;20027;-76
2022/09/04 04:16:58;;;;;;;2.03;1.90;;;14.50;66.60;;;;;;5110693;28;20480;-76
2022/09/04 04:19:46;;;;;;;2.00;1.90;;;14.50;66.60;;;;;;5110966;28;20118;-77
2022/09/04 04:22:39;;;;;;;1.75;1.65;;;14.50;66.60;;;;;;5112197;28;20020;-76
2022/09/04 04:25:47;;;;;;;1.88;1.77;;;14.50;66.60;;;;;;5112204;28;20019;-76
2022/09/04 04:28:31;;;;;;;;;;;14.50;66.60;;;;;;5111165;28;20084;-76
2022/09/04 04:31:18;;;;;;;1.50;1.40;;;14.50;66.60;;;;;;5110693;28;19914;-76
2022/09/04 04:34:01;;;;;;;1.70;1.60;;;14.50;66.60;;;;;;5111969;28;20034;-77
2022/09/04 04:36:56;;;;;;;1.48;1.38;;;14.40;66.50;;;;;;5111773;28;20027;-77
2022/09/04 04:39:31;;;;;;;1.60;1.50;;;14.30;66.50;;;;;;5096072;28;20369;-77
2022/09/04 04:42:19;;;;;;;1.52;1.42;;;14.30;66.50;;;;;;5111433;28;20050;-76
2022/09/04 04:47:51;;;;;;;1.58;1.48;;;14.20;66.60;;;;;;5111700;28;20112;-76
2022/09/04 04:50:40;;;;;;;1.33;1.23;;;14.10;66.60;;;;;;5111671;28;20059;-76
2022/09/04 04:53:31;;;;;;;1.58;1.48;;;14.10;66.70;;;;;;5110313;28;20394;-76
2022/09/04 04:56:23;;;;;;;1.50;1.40;;;14.10;66.70;;;;;;5111388;28;20326;-76
2022/09/04 04:59:05;;;;;;;1.38;1.27;;;14.00;66.70;;;;;;5110351;28;20111;-76
2022/09/04 05:02:10;;;;;;;1.42;1.33;;;14.00;66.70;;;;;;5110280;28;20378;-76
2022/09/04 05:05:04;;;;;;;1.45;1.35;;;14.00;66.90;;;;;;5110333;28;20106;-76
2022/09/04 05:07:54;;;;;;;1.40;1.30;;;14.00;66.90;;;;;;5111583;28;20103;-76
2022/09/04 05:10:33;;;;;;;1.70;1.60;;;14.10;66.80;;;;;;5110165;28;20027;-76
2022/09/04 05:13:27;;;;;;;1.80;1.70;;;14.10;66.90;;;;;;5111541;28;20020;-76
2022/09/04 05:16:21;;;;;;;2.28;2.08;;;14.10;67.00;;;;;;5111395;28;20024;-76
2022/09/04 05:19:00;;;;;;;1.90;1.80;;;14.10;67.00;;;;;;5111314;28;20055;-76
2022/09/04 05:21:35;;;;;;;1.77;1.67;;;14.00;66.80;;;;;;5110301;28;20042;-76
2022/09/04 05:24:22;;;;;;;1.83;1.73;;;14.00;66.90;;;;;;5110098;28;20030;-77
2022/09/04 05:26:54;;;;;;;1.90;1.80;;;13.90;66.90;;;;;;5109932;28;20030;-76
2022/09/04 05:29:29;;;;;;;2.10;2.00;;;13.80;66.90;;;;;;5111290;28;20107;-76
2022/09/04 05:32:07;;;;;;;1.70;1.60;;;13.80;67.00;;;;;;5110041;28;20036;-76
2022/09/04 05:35:35;;;;;;;1.65;1.55;;;13.70;66.90;;;;;;5111411;28;20026;-76
2022/09/04 05:38:16;;;;;;;1.80;1.70;;;13.60;66.90;;;;;;5048168;28;20388;-76
2022/09/04 05:41:04;;;;;;;1.70;1.60;;;13.50;66.90;;;;;;5111238;28;20024;-76
2022/09/04 05:43:40;;;;;;;1.55;1.45;;;13.40;67.00;;;;;;5111379;28;20035;-76
2022/09/04 05:46:23;;;;;;;1.80;1.70;;;13.40;67.00;;;;;;5110217;28;20168;-76
2022/09/04 05:49:10;;;;;;;1.63;1.52;;;13.30;67.10;;;;;;5111110;28;20028;-76
2022/09/04 05:51:39;;;;;;;1.88;1.77;;;13.30;67.20;;;;;;5109800;28;20020;-76
2022/09/04 05:54:32;;;;;;;2.00;1.90;;;13.30;67.20;;;;;;5111681;28;20042;-76
2022/09/04 05:57:13;;;;;;;1.75;1.65;;;13.20;67.20;;;;;;5114865;28;20019;-76
2022/09/04 06:00:08;;;;;;;1.80;1.70;;;13.20;67.20;;;;;;5113666;28;20106;-76
2022/09/04 06:02:42;;;;;;;1.95;1.85;;;13.30;67.10;;;;;;5111522;27;20114;-76
2022/09/04 06:05:17;;;;;;;1.88;1.77;;;13.30;67.10;;;;;;5114797;28;20077;-76
2022/09/04 06:08:07;;;;;;;1.90;1.80;;;13.30;67.10;;;;;;5114630;28;20047;-76
2022/09/04 06:11:21;;;;;;;1.92;1.83;;;13.30;67.00;;;;;;5113361;28;20028;-77
2022/09/04 06:14:30;;;;;;;1.88;1.77;;;13.30;67.00;;;;;;5051326;28;20021;-76
2022/09/04 06:17:14;;;;;;;2.10;1.95;;;13.30;67.00;;;;;;5028154;28;20041;-76
2022/09/04 06:19:52;;;;;;;1.90;1.80;;;13.20;66.90;;;;;;5103970;28;20054;-76
2022/09/04 06:22:25;;;;;;;1.90;1.80;;;13.20;66.90;;;;;;5114295;28;20439;-76
2022/09/04 06:25:00;;;;;;;2.30;2.10;;;13.20;66.90;;;;;;5114425;28;20032;-77
2022/09/04 06:27:50;;;;;;;2.42;2.22;;;13.20;66.90;;;;;;5114271;28;20020;-77
2022/09/04 06:30:16;;;;;;;2.00;1.90;;;13.30;67.00;;;;;;5114367;28;20024;-77
2022/09/04 06:32:51;;;;;;;2.30;2.10;;;13.30;66.90;;;;;;5114297;28;20042;-77
2022/09/04 06:35:26;;;;;;;1.90;1.80;;;13.30;67.00;;;;;;5114182;28;20020;-76
2022/09/04 06:38:15;;;;;;;2.15;1.98;;;13.30;67.00;;;;;;5114221;28;20077;-76
2022/09/04 06:40:52;;;;;;;2.05;1.92;;;13.20;67.00;;;;;;5074706;28;20349;-76
2022/09/04 06:43:27;;;;;;;2.10;2.00;;;13.20;67.00;;;;;;5114164;28;20471;-76
2022/09/04 06:46:10;;;;;;;1.98;1.88;;;13.20;67.00;;;;;;5113906;28;20102;-76
2022/09/04 06:48:54;;;;;;;1.92;1.83;;;13.30;67.20;;;;;;5112824;28;20114;-76
2022/09/04 06:51:41;;;;;;;1.60;1.50;;;13.30;67.20;;;;;;5112557;28;20035;-76
2022/09/04 06:54:46;;;;;;;1.60;1.50;;;13.30;67.10;;;;;;5112224;28;20055;-76
2022/09/04 06:57:18;;;;;;;1.58;1.48;;;13.30;67.00;;;;;;5089848;28;20036;-76
2022/09/04 06:59:52;;;;;;;1.33;1.23;;;13.40;67.10;;;;;;5113888;28;20027;-76
2022/09/04 07:02:37;;;;;;;1.35;1.25;;;13.50;67.10;;;;;;5111992;28;20035;-76
2022/09/04 07:05:26;;;;;;;1.35;1.25;;;13.50;67.10;;;;;;5113236;28;20024;-76
2022/09/04 07:07:55;;;;;;;0.93;0.93;;;13.70;67.20;;;;;;5112209;28;20383;-76
2022/09/04 07:10:25;;;;;;;1.02;1.02;;;14.00;66.70;;;;;;5114028;28;20023;-76
2022/09/04 07:13:09;;;;;;;0.80;0.80;;;14.00;66.50;;;;;;5111978;28;20024;-76
2022/09/04 07:15:51;;;;;;;0.60;0.60;;;14.00;66.60;;;;;;5113264;28;20023;-76
2022/09/04 07:18:23;;;;;;;0.68;0.68;;;14.10;66.70;;;;;;5113300;28;20039;-76
2022/09/04 07:21:19;;;;;;;0.70;0.70;;;14.30;67.10;;;;;;5113295;28;20049;-76
2022/09/04 07:24:13;;;;;;;0.90;0.90;;;14.60;66.80;;;;;;5113202;28;20041;-76
2022/09/04 07:26:55;;;;;;;0.50;0.50;;;15.00;66.50;;;;;;5111697;28;20473;-76
2022/09/04 07:29:38;;;;;;;0.30;0.30;;;15.00;66.10;;;;;;5111486;28;20043;-76
2022/09/04 07:32:22;;;;;;;0.20;0.20;;;15.00;66.30;;;;;;5112981;28;20035;-76
2022/09/04 07:35:33;;;;;;;0.20;0.20;;;14.90;66.40;;;;;;5112972;28;20023;-76
2022/09/04 07:38:39;;;;;;;0.20;0.20;;;15.00;66.70;;;;;;5097016;28;20411;-76
2022/09/04 07:41:27;;;;;;;0.20;0.20;;;15.20;66.80;;;;;;5112690;28;20024;-76
2022/09/04 07:44:14;;;;;;;0.10;0.10;;;15.40;66.70;;;;;;5111086;28;20019;-76
2022/09/04 07:46:59;;;;;;;0.15;0.15;;;15.90;67.70;;;;;;5112635;28;20030;-76
2022/09/04 07:49:51;;;;;;;0.00;0.00;;;16.90;67.60;;;;;;5112724;28;20018;-76
2022/09/04 07:52:24;;;;;;;0.10;0.10;;;17.90;67.20;;;;;;5112652;28;20104;-76
2022/09/04 07:54:59;;;;;;;0.00;0.00;;;19.20;67.40;;;;;;5112357;28;20036;-76
2022/09/04 07:57:47;;;;;;;0.00;0.00;;;20.60;66.50;;;;;;5112439;28;20023;-77
2022/09/04 08:00:19;;;;;;;0.00;0.00;;;21.30;65.60;;;;;;5110417;28;20020;-77
2022/09/04 08:03:19;;;;;;;0.00;0.00;;;22.00;65.80;;;;;;5112349;28;20024;-77
2022/09/04 08:06:15;;;;;;;0.00;0.00;;;23.10;65.80;;;;;;5110733;28;20035;-77
2022/09/04 08:08:50;;;;;;;0.00;0.00;;;24.20;65.20;;;;;;5111063;28;20603;-77
2022/09/04 08:11:47;;;;;;;0.00;0.00;;;24.90;65.20;;;;;;5110806;28;20030;-77
2022/09/04 08:14:48;;;;;;;0.00;0.00;;;25.60;65.20;;;;;;5108710;28;20040;-77
2022/09/04 08:17:24;;;;;;;0.00;0.00;;;26.30;65.30;;;;;;5110336;28;20411;-77
2022/09/04 08:19:55;;;;;;;0.00;0.00;;;26.80;65.70;;;;;;5111938;28;20490;-77
2022/09/04 08:22:46;;;;;;;0.00;0.00;;;27.40;65.70;;;;;;5111858;28;20028;-77
2022/09/04 08:25:31;;;;;;;0.00;0.00;;;28.10;65.60;;;;;;5110473;28;20031;-77
2022/09/04 08:28:19;;;;;;;0.00;0.00;;;28.90;65.60;;;;;;5111759;28;20058;-77
2022/09/04 08:31:07;;;;;;;0.00;0.00;;;29.00;65.10;;;;;;5111530;28;20012;-77
2022/09/04 08:34:10;;;;;;;0.00;0.00;;;28.60;65.30;;;;;;5111646;28;20020;-77
2022/09/04 08:36:36;;;;;;;0.00;0.00;;;28.90;65.50;;;;;;5110246;28;20020;-77
2022/09/04 08:39:17;;;;;;;0.00;0.00;;;28.80;65.60;;;;;;5111636;28;20039;-77
2022/09/04 08:41:47;;;;;;;0.00;0.00;;;29.10;66.10;;;;;;5110351;28;20015;-77
2022/09/04 08:44:54;;;;;;;0.00;0.00;;;29.30;66.50;;;;;;5111443;28;20478;-77
2022/09/04 08:47:34;;;;;;;0.00;0.00;;;29.60;66.40;;;;;;5080770;28;20039;-77
2022/09/04 08:50:33;;;;;;;0.00;0.00;;;29.60;66.10;;;;;;5111649;28;20044;-77
2022/09/04 08:53:17;;;;;;;0.00;0.00;;;29.00;65.70;;;;;;5099768;28;20031;-77
2022/09/04 08:55:55;;;;;;;0.00;0.00;;;28.80;66.40;;;;;;5109537;28;20519;-77
2022/09/04 08:58:43;;;;;;;0.00;0.00;;;28.90;66.30;;;;;;5111530;28;20414;-76
2022/09/04 09:01:31;;;;;;;0.00;0.00;;;28.60;66.40;;;;;;5111099;28;20016;-77
2022/09/04 09:04:18;;;;;;;0.00;0.00;;;28.50;66.90;;;;;;5109550;28;20047;-76
2022/09/04 09:07:22;;;;;;;0.00;0.00;;;28.40;67.20;;;;;;5110973;28;20020;-76
2022/09/04 09:09:57;;;;;;;0.00;0.00;;;28.60;67.70;;;;;;5110710;28;20020;-77
2022/09/04 09:12:36;;;;;;;0.00;0.00;;;28.90;67.30;;;;;;5110783;28;20502;-77
2022/09/04 09:15:21;;;;;;;0.00;0.00;;;28.90;67.20;;;;;;5111264;28;20035;-76
2022/09/04 09:18:19;;;;;;;0.00;0.00;;;29.20;67.40;;;;;;5110946;28;20076;-77
2022/09/04 09:21:06;;;;;;;0.00;0.00;;;29.50;67.10;;;;;;5092032;28;20028;-77
2022/09/04 09:24:07;;;;;;;0.00;0.00;;;29.80;67.30;;;;;;5110808;28;20024;-77
2022/09/04 09:26:37;;;;;;;0.00;0.00;;;30.50;67.20;;;;;;5110669;28;20051;-77
2022/09/04 09:29:34;;;;;;;0.00;0.00;;;31.00;66.70;;;;;;5113350;28;20024;-77
2022/09/04 09:32:36;;;;;;;0.00;0.00;;;31.20;66.70;;;;;;5114751;28;20450;-77
2022/09/04 09:35:21;;;;;;;0.00;0.00;;;31.60;66.40;;;;;;5114756;28;20057;-77
2022/09/04 09:38:08;;;;;;;0.00;0.00;;;31.60;66.70;;;;;;5114780;28;20092;-77
2022/09/04 09:41:15;;;;;;;0.00;0.00;;;31.50;66.70;;;;;;5113375;28;20024;-77
2022/09/04 09:43:49;;;;;;;0.00;0.00;;;31.50;66.60;;;;;;5114841;28;20023;-77
2022/09/04 09:46:51;;;;;;;0.00;0.00;;;31.60;66.70;;;;;;5113265;28;20028;-77
2022/09/04 09:49:36;;;;;;;0.00;0.00;;;31.50;66.70;;;;;;5114577;28;20068;-76
2022/09/04 09:52:29;;;;;;;0.00;0.00;;;31.00;66.00;;;;;;5114273;28;20019;-76
2022/09/04 09:54:58;;;;;;;0.00;0.00;;;29.90;66.00;;;;;;5114297;28;20039;-77
2022/09/04 09:57:36;;;;;;;0.00;0.00;;;29.40;67.30;;;;;;5114173;28;20456;-77
2022/09/04 10:00:09;;;;;;;0.00;0.00;;;29.30;67.20;;;;;;5114285;28;20102;-77
2022/09/04 10:02:50;;;;;;;0.00;0.00;;;28.90;67.70;;;;;;5114108;28;20095;-77
2022/09/04 10:05:45;;;;;;;0.00;0.00;;;28.90;68.40;;;;;;5114226;28;20022;-77
2022/09/04 10:08:13;;;;;;;0.00;0.00;;;29.80;69.10;;;;;;5041394;28;20123;-76
2022/09/04 10:10:58;;;;;;;0.00;0.00;;;30.50;68.60;;;;;;5114181;28;20045;-75
2022/09/04 10:13:48;;;;;;;0.00;0.00;;;31.10;68.90;;;;;;5112659;28;20027;-77
2022/09/04 10:17:06;;;;;;;0.00;0.00;;;31.90;68.00;;;;;;5114061;28;20059;-77
2022/09/04 10:19:45;;;;;;;0.00;0.00;;;32.70;67.10;;;;;;5089779;28;20109;-77
2022/09/04 10:22:32;;;;;;;0.00;0.00;;;32.70;66.80;;;;;;5112171;28;20413;-77
2022/09/04 10:25:22;;;;;;;0.00;0.00;;;32.90;67.10;;;;;;5112323;28;20019;-77
2022/09/04 10:28:16;;;;;;;0.00;0.00;;;33.30;67.10;;;;;;5112274;28;20023;-77
2022/09/04 10:30:57;;;;;;;0.00;0.00;;;33.60;67.00;;;;;;5112350;28;20030;-77
2022/09/04 10:33:43;;;;;;;0.00;0.00;;;33.80;67.10;;;;;;5112300;28;20019;-77
2022/09/04 10:36:30;;;;;;;0.00;0.00;;;33.80;66.70;;;;;;5113425;28;20141;-77
2022/09/04 10:42:54;;;;;;;0.00;0.00;;;33.10;67.20;;;;;;5113168;28;20181;-77
2022/09/04 10:45:34;;;;;;;0.00;0.00;;;33.00;67.40;;;;;;5109775;28;20105;-77
2022/09/04 10:48:15;;;;;;;0.00;0.00;;;33.20;67.00;;;;;;5112999;28;20437;-77
2022/09/04 10:51:07;;;;;;;0.00;0.00;;;33.10;66.90;;;;;;5111811;28;20023;-77
2022/09/04 10:53:38;;;;;;;0.00;0.00;;;32.90;66.90;;;;;;5113202;28;20035;-77
2022/09/04 10:56:15;;;;;;;0.00;0.00;;;32.90;67.30;;;;;;5110914;28;20051;-77
2022/09/04 10:59:02;;;;;;;0.00;0.00;;;32.80;66.90;;;;;;5113151;28;20095;-77
2022/09/04 11:01:41;;;;;;;0.00;0.00;;;32.50;66.80;;;;;;5111653;28;20023;-77
2022/09/04 11:04:35;;;;;;;0.00;0.00;;;32.60;67.10;;;;;;5113021;28;20012;-77
2022/09/04 11:07:26;;;;;;;0.00;0.00;;;32.70;66.90;;;;;;5112916;28;20098;-78
2022/09/04 11:10:39;;;;;;;0.00;0.00;;;32.60;66.30;;;;;;5111038;28;20038;-77
2022/09/04 11:13:26;;;;;;;0.00;0.00;;;32.30;67.20;;;;;;5049588;28;20116;-77
2022/09/04 11:16:08;;;;;;;0.03;0.03;;;32.20;67.20;;;;;;5049194;28;20021;-76
2022/09/04 11:18:58;;;;;;;0.00;0.00;;;32.10;66.90;;;;;;5094978;28;20115;-77
2022/09/04 11:22:18;;;;;;;0.00;0.00;;;32.20;67.00;;;;;;5112708;28;20420;-76
2022/09/04 11:25:13;;;;;;;0.00;0.00;;;32.30;67.00;;;;;;5111538;28;20537;-77
2022/09/04 11:28:11;;;;;;;0.00;0.00;;;32.30;66.70;;;;;;5112108;28;20024;-77
2022/09/04 11:30:55;;;;;;;0.00;0.00;;;32.20;66.60;;;;;;5112619;28;20440;-77
2022/09/04 11:33:45;;;;;;;0.00;0.00;;;32.10;67.00;;;;;;5112658;28;20053;-77
2022/09/04 11:36:39;;;;;;;0.00;0.00;;;32.20;67.50;;;;;;5111705;28;20027;-77
2022/09/04 11:39:24;;;;;;;0.00;0.00;;;32.20;67.60;;;;;;5112190;28;20650;-77
2022/09/04 11:41:59;;;;;;;0.00;0.00;;;32.70;67.60;;;;;;5112048;28;20047;-77
2022/09/04 11:44:36;;;;;;;0.00;0.00;;;32.80;66.70;;;;;;5112399;28;20027;-76
2022/09/04 11:47:10;;;;;;;0.00;0.00;;;31.90;65.70;;;;;;5112031;28;20024;-77
2022/09/04 11:49:56;;;;;;;0.00;0.00;;;31.40;66.60;;;;;;5110967;28;20024;-77
2022/09/04 11:52:35;;;;;;;0.00;0.00;;;30.80;66.90;;;;;;5111679;28;20120;-77
2022/09/04 11:55:19;;;;;;;0.00;0.00;;;30.10;67.60;;;;;;5111690;28;20086;-76
2022/09/04 11:57:56;;;;;;;0.00;0.00;;;30.30;68.20;;;;;;5111031;28;20053;-76
2022/09/04 12:00:22;;;;;;;0.00;0.00;;;30.60;67.50;;;;;;5111759;28;20027;-77
2022/09/04 12:03:10;;;;;;;0.00;0.00;;;30.10;66.40;;;;;;5111458;28;20039;-76
2022/09/04 12:05:46;;;;;;;0.00;0.00;;;29.40;67.10;;;;;;5109605;28;20422;-77
2022/09/04 12:08:42;;;;;;;0.00;0.00;;;29.60;68.40;;;;;;5111667;28;20015;-77
2022/09/04 12:11:30;;;;;;;0.00;0.00;;;30.10;67.70;;;;;;5105533;28;20134;-77
2022/09/04 12:14:20;;;;;;;0.00;0.00;;;30.10;67.60;;;;;;5112493;28;20024;-76
2022/09/04 12:17:27;;;;;;;0.00;0.00;;;29.80;66.40;;;;;;5112716;28;20077;-76
2022/09/04 12:20:13;;;;;;;0.00;0.00;;;29.00;66.50;;;;;;5099250;28;20055;-76
2022/09/04 12:23:08;;;;;;;0.00;0.00;;;28.30;66.70;;;;;;5111754;28;20098;-75
2022/09/04 12:26:03;;;;;;;0.00;0.00;;;27.80;66.80;;;;;;5110866;28;20023;-76
2022/09/04 12:29:12;;;;;;;0.00;0.00;;;27.40;66.60;;;;;;5111206;28;20071;-76
2022/09/04 12:32:26;;;;;;;0.00;0.00;;;26.90;66.50;;;;;;5045941;28;20035;-76
2022/09/04 12:35:18;;;;;;;0.00;0.00;;;26.50;66.60;;;;;;5102270;28;20063;-77
2022/09/04 12:38:09;;;;;;;0.00;0.00;;;26.40;66.80;;;;;;5110821;28;20102;-76
2022/09/04 12:41:05;;;;;;;0.00;0.00;;;26.50;66.80;;;;;;5110794;28;20348;-76
2022/09/04 12:44:05;;;;;;;0.00;0.00;;;26.70;67.10;;;;;;5110937;28;20020;-77
2022/09/04 12:46:47;;;;;;;0.00;0.00;;;27.20;67.20;;;;;;5110716;28;20422;-76
2022/09/04 12:49:24;;;;;;;0.00;0.00;;;27.80;67.70;;;;;;5109110;28;20020;-76
2022/09/04 12:52:10;;;;;;;0.00;0.00;;;28.40;67.80;;;;;;5110479;28;20106;-76
2022/09/04 12:54:44;;;;;;;0.00;0.00;;;29.10;67.60;;;;;;5109261;28;20075;-76
2022/09/04 12:57:19;;;;;;;0.00;0.00;;;29.00;66.40;;;;;;5111036;28;20100;-76
2022/09/04 12:59:56;;;;;;;0.00;0.00;;;28.40;66.30;;;;;;5109601;28;20088;-76
2022/09/04 13:02:34;;;;;;;0.00;0.00;;;27.90;66.40;;;;;;5110035;28;20042;-76
2022/09/04 13:05:27;;;;;;;0.00;0.00;;;27.40;65.80;;;;;;5110394;28;20027;-76
2022/09/04 13:08:06;;;;;;;0.00;0.00;;;26.60;65.80;;;;;;5109166;28;20030;-76
2022/09/04 13:10:40;;;;;;;0.00;0.00;;;26.00;65.90;;;;;;5110431;28;20016;-76
2022/09/04 13:13:33;;;;;;;0.00;0.00;;;25.40;66.00;;;;;;5109250;28;20367;-76
2022/09/04 13:16:17;;;;;;;0.00;0.00;;;24.90;66.40;;;;;;5108709;28;20019;-76
2022/09/04 13:18:57;;;;;;;0.00;0.00;;;25.00;67.60;;;;;;5110264;28;20077;-76
2022/09/04 13:21:28;;;;;;;0.00;0.00;;;25.20;67.00;;;;;;5109275;28;20028;-76
2022/09/04 13:23:57;;;;;;;0.00;0.00;;;24.90;66.30;;;;;;5110399;28;20102;-76
2022/09/04 13:26:36;;;;;;;0.00;0.00;;;24.60;66.20;;;;;;5110103;28;20020;-76
2022/09/04 13:29:34;;;;;;;0.00;0.00;;;24.60;67.20;;;;;;5108926;28;20667;-76
2022/09/04 13:32:28;;;;;;;0.00;0.00;;;24.90;67.30;;;;;;5110433;28;20047;-76
2022/09/04 13:35:30;;;;;;;0.00;0.00;;;25.00;66.70;;;;;;5110379;28;20031;-76
2022/09/04 13:38:07;;;;;;;0.00;0.00;;;24.80;65.90;;;;;;5108932;28;20024;-76
2022/09/04 13:40:44;;;;;;;0.00;0.00;;;24.50;66.00;;;;;;5108859;28;20042;-76
2022/09/04 13:43:16;;;;;;;0.00;0.00;;;24.30;66.00;;;;;;5108743;28;20396;-76
2022/09/04 13:45:50;;;;;;;0.00;0.00;;;24.00;65.90;;;;;;5109688;28;20497;-76
2022/09/04 13:48:39;;;;;;;0.00;0.00;;;23.80;65.70;;;;;;5110088;28;20043;-76
2022/09/04 13:51:15;;;;;;;0.00;0.00;;;23.50;65.80;;;;;;5108917;28;20026;-76
2022/09/04 13:54:12;;;;;;;0.00;0.00;;;23.40;65.80;;;;;;5108472;28;20110;-76
2022/09/04 13:56:38;;;;;;;;;;;23.20;65.70;;;;;;5098255;28;20039;-76
2022/09/04 13:59:09;;;;;;;0.00;0.00;;;23.20;65.80;;;;;;5109204;28;19910;-76
2022/09/04 14:01:44;;;;;;;0.00;0.00;;;23.00;65.70;;;;;;5110418;28;20023;-76
2022/09/04 14:04:28;;;;;;;0.00;0.00;;;22.90;65.80;;;;;;5108632;28;20058;-76
2022/09/04 14:07:05;;;;;;;0.00;0.00;;;23.00;66.00;;;;;;5110091;28;20032;-76
2022/09/04 14:09:31;;;;;;;;;;;23.10;65.80;;;;;;5110189;28;20057;-76
2022/09/04 14:12:34;;;;;;;0.00;0.00;;;23.20;65.90;;;;;;5110020;28;20359;-76
2022/09/04 14:15:21;;;;;;;0.00;0.00;;;23.10;65.20;;;;;;5110649;28;20050;-76
2022/09/04 14:18:03;;;;;;;0.00;0.00;;;22.90;65.00;;;;;;5113829;28;20039;-76
2022/09/04 14:20:39;;;;;;;0.00;0.00;;;22.70;65.30;;;;;;5113318;28;20019;-76
2022/09/04 14:23:31;;;;;;;0.00;0.00;;;22.70;65.50;;;;;;5113669;28;20513;-76
2022/09/04 14:26:19;;;;;;;0.00;0.00;;;22.70;65.90;;;;;;5113420;28;20107;-76
2022/09/04 14:28:57;;;;;;;0.00;0.00;;;22.70;65.30;;;;;;5113392;28;20099;-76